createdAt,value
2023-04-10T00:00:32.839Z,98741.78
2023-04-10T00:03:03.501Z,98740.19
2023-04-10T00:05:33.968Z,98735.28
2023-04-10T00:08:04.406Z,98743.06
2023-04-10T00:10:34.652Z,98744.41
2023-04-10T00:13:05.103Z,98749.28
2023-04-10T00:15:34.695Z,98743.31
2023-04-10T00:18:04.098Z,98744.09
2023-04-10T00:20:33.415Z,98742.78
2023-04-10T00:23:02.725Z,98740.09
2023-04-10T00:25:32.566Z,98752.69
2023-04-10T00:28:01.831Z,98747.25
2023-04-10T00:30:31.301Z,98759.06
2023-04-10T00:33:01.029Z,98754.38
2023-04-10T00:35:30.481Z,98754.69
2023-04-10T00:38:00.270Z,98758.72
2023-04-10T00:40:31.511Z,98762.25
2023-04-10T00:43:01.241Z,98753.41
2023-04-10T00:45:30.984Z,98759.84
2023-04-10T00:48:00.612Z,98770.06
2023-04-10T00:50:29.920Z,98765.22
2023-04-10T00:53:00.530Z,98771.75
2023-04-10T00:55:30.292Z,98776.56
2023-04-10T00:57:59.890Z,98777.63
2023-04-10T01:00:29.377Z,98776.25
2023-04-10T01:02:59.158Z,98782.19
2023-04-10T01:05:37.357Z,98777.06
2023-04-10T01:08:16.339Z,98779.25
2023-04-10T01:11:08.824Z,98790.31
2023-04-10T01:13:48.574Z,98784.44
2023-04-10T01:16:28.568Z,98797.13
2023-04-10T01:19:28.198Z,98803.00
2023-04-10T01:21:58.421Z,98804.38
2023-04-10T01:24:58.249Z,98802.28
2023-04-10T01:27:48.495Z,98818.78
2023-04-10T01:30:22.239Z,98818.59
2023-04-10T01:32:57.160Z,98812.97
2023-04-10T01:35:30.428Z,98817.41
2023-04-10T01:38:03.058Z,98828.56
2023-04-10T01:40:34.815Z,98828.63
2023-04-10T01:43:07.583Z,98830.56
2023-04-10T01:45:48.417Z,98832.44
2023-04-10T01:48:19.786Z,98833.31
2023-04-10T01:50:50.310Z,98839.88
2023-04-10T01:53:21.042Z,98841.28
2023-04-10T01:55:52.186Z,98841.84
2023-04-10T01:58:21.802Z,98845.13
2023-04-10T02:00:51.505Z,98839.03
2023-04-10T02:03:21.781Z,98848.25
2023-04-10T02:06:19.155Z,98843.19
2023-04-10T02:09:04.793Z,98842.97
2023-04-10T02:11:44.025Z,98845.19
2023-04-10T02:14:17.795Z,98840.97
2023-04-10T02:16:48.081Z,98850.97
2023-04-10T02:19:20.472Z,98847.56
2023-04-10T02:21:50.049Z,98853.03
2023-04-10T02:24:21.218Z,98847.56
2023-04-10T02:26:52.252Z,98861.34
2023-04-10T02:29:22.076Z,98860.97
2023-04-10T02:31:51.871Z,98867.91
2023-04-10T02:34:22.019Z,98865.22
2023-04-10T02:36:51.352Z,98868.31
2023-04-10T02:39:21.716Z,98876.09
2023-04-10T02:41:53.572Z,98890.72
2023-04-10T02:44:23.065Z,98882.13
2023-04-10T02:46:52.445Z,98884.66
2023-04-10T02:49:23.066Z,98885.59
2023-04-10T02:51:53.310Z,98891.81
2023-04-10T02:54:23.931Z,98887.53
2023-04-10T02:56:53.321Z,98887.59
2023-04-10T02:59:22.960Z,98886.00
2023-04-10T03:01:55.562Z,98892.19
2023-04-10T03:04:25.286Z,98891.19
2023-04-10T03:06:55.778Z,98896.78
2023-04-10T03:09:25.769Z,98891.72
2023-04-10T03:11:56.772Z,98909.81
2023-04-10T03:14:26.009Z,98907.81
2023-04-10T03:16:56.045Z,98903.84
2023-04-10T03:19:27.702Z,98909.56
2023-04-10T03:21:57.235Z,98907.66
2023-04-10T03:24:26.565Z,98908.69
2023-04-10T03:26:58.152Z,98910.66
2023-04-10T03:29:27.599Z,98910.16
2023-04-10T03:31:58.550Z,98916.97
2023-04-10T03:34:29.201Z,98920.81
2023-04-10T03:36:58.855Z,98919.75
2023-04-10T03:39:28.114Z,98925.13
2023-04-10T03:41:57.480Z,98922.31
2023-04-10T03:44:27.573Z,98934.03
2023-04-10T03:46:56.979Z,98929.75
2023-04-10T03:49:26.371Z,98937.28
2023-04-10T03:52:03.895Z,98936.72
2023-04-10T03:54:33.183Z,98944.00
2023-04-10T03:57:05.458Z,98955.94
2023-04-10T03:59:38.543Z,98950.94
2023-04-10T04:02:13.571Z,98952.25
2023-04-10T04:04:44.802Z,98949.41
2023-04-10T04:07:43.199Z,98955.34
2023-04-10T04:10:44.789Z,98950.13
2023-04-10T04:13:19.523Z,98951.53
2023-04-10T04:16:09.131Z,98952.84
2023-04-10T04:18:46.218Z,98957.00
2023-04-10T04:21:22.690Z,98959.00
2023-04-10T04:24:21.073Z,98959.44
2023-04-10T04:27:07.333Z,98953.69
2023-04-10T04:29:50.810Z,98962.47
2023-04-10T04:32:26.837Z,98959.06
2023-04-10T04:35:05.023Z,98970.38
2023-04-10T04:37:52.857Z,98968.78
2023-04-10T04:40:48.922Z,98967.19
2023-04-10T04:43:37.686Z,98977.28
2023-04-10T04:46:19.976Z,98969.47
2023-04-10T04:49:01.494Z,98968.50
2023-04-10T04:51:53.554Z,98967.78
2023-04-10T04:54:52.384Z,98969.97
2023-04-10T04:57:54.691Z,98975.19
2023-04-10T05:00:43.078Z,98976.97
2023-04-10T05:03:31.067Z,98976.25
2023-04-10T05:06:06.938Z,98976.13
2023-04-10T05:08:54.750Z,98983.91
2023-04-10T05:11:48.132Z,98976.47
2023-04-10T05:14:40.119Z,98985.81
2023-04-10T05:17:29.456Z,98975.38
2023-04-10T05:20:17.350Z,98981.13
2023-04-10T05:23:05.496Z,98983.53
2023-04-10T05:25:55.733Z,98984.50
2023-04-10T05:29:00.794Z,98982.19
2023-04-10T05:31:48.461Z,98984.50
2023-04-10T05:34:40.847Z,98979.69
2023-04-10T05:37:14.323Z,98987.72
2023-04-10T05:40:18.937Z,98991.63
2023-04-10T05:43:17.854Z,98985.03
2023-04-10T05:46:00.266Z,98983.88
2023-04-10T05:48:48.116Z,98974.69
2023-04-10T05:51:20.019Z,98974.19
2023-04-10T05:54:09.838Z,98977.03
2023-04-10T05:57:03.080Z,98982.53
2023-04-10T05:59:49.576Z,98967.75
2023-04-10T06:02:42.470Z,98969.81
2023-04-10T06:05:20.492Z,98969.78
2023-04-10T06:07:50.303Z,98970.34
2023-04-10T06:10:19.900Z,98964.28
2023-04-10T06:12:49.343Z,98956.75
2023-04-10T06:15:19.364Z,98957.63
2023-04-10T06:17:49.006Z,98955.22
2023-04-10T06:20:18.442Z,98949.91
2023-04-10T06:22:48.366Z,98951.19
2023-04-10T06:25:17.755Z,98941.19
2023-04-10T06:27:47.783Z,98939.09
2023-04-10T06:30:17.099Z,98944.88
2023-04-10T06:32:46.910Z,98942.50
2023-04-10T06:35:16.729Z,98937.53
2023-04-10T06:37:46.584Z,98941.06
2023-04-10T06:40:17.738Z,98927.94
2023-04-10T06:42:47.307Z,98933.16
2023-04-10T06:45:25.028Z,98931.63
2023-04-10T06:47:54.814Z,98922.59
2023-04-10T06:50:24.675Z,98920.16
2023-04-10T06:52:56.927Z,98921.66
2023-04-10T06:55:28.127Z,98926.50
2023-04-10T06:57:58.280Z,98921.53
2023-04-10T07:00:28.138Z,98918.13
2023-04-10T07:02:57.863Z,98916.66
2023-04-10T07:05:28.034Z,98920.09
2023-04-10T07:07:57.744Z,98916.59
2023-04-10T07:10:29.550Z,98913.25
2023-04-10T07:13:00.012Z,98902.38
2023-04-10T07:15:29.650Z,98906.38
2023-04-10T07:17:58.989Z,98904.56
2023-04-10T07:20:29.456Z,98909.97
2023-04-10T07:22:58.748Z,98905.72
2023-04-10T07:25:27.990Z,98897.78
2023-04-10T07:27:58.212Z,98884.63
2023-04-10T07:30:27.873Z,98887.31
2023-04-10T07:32:57.287Z,98883.72
2023-04-10T07:35:27.120Z,98887.16
2023-04-10T07:37:56.702Z,98878.38
2023-04-10T07:40:25.867Z,98882.94
2023-04-10T07:42:55.601Z,98876.50
2023-04-10T07:45:24.926Z,98878.59
2023-04-10T07:47:54.522Z,98867.75
2023-04-10T07:50:24.148Z,98863.28
2023-04-10T07:52:53.324Z,98854.50
2023-04-10T07:55:22.628Z,98860.47
2023-04-10T07:57:53.515Z,98860.84
2023-04-10T08:00:22.979Z,98859.44
2023-04-10T08:02:53.158Z,98859.19
2023-04-10T08:05:23.199Z,98864.75
2023-04-10T08:07:52.689Z,98859.19
2023-04-10T08:10:22.103Z,98852.19
2023-04-10T08:12:52.048Z,98853.34
2023-04-10T08:15:22.166Z,98848.66
2023-04-10T08:17:52.083Z,98837.88
2023-04-10T08:20:21.404Z,98844.59
2023-04-10T08:22:50.809Z,98836.53
2023-04-10T08:25:20.396Z,98829.34
2023-04-10T08:27:49.724Z,98829.75
2023-04-10T08:30:18.987Z,98821.84
2023-04-10T08:32:48.693Z,98826.41
2023-04-10T08:35:18.633Z,98824.81
2023-04-10T08:37:53.632Z,98821.44
2023-04-10T08:40:31.908Z,98815.28
2023-04-10T08:43:02.215Z,98805.25
2023-04-10T08:45:31.998Z,98810.09
2023-04-10T08:48:04.287Z,98805.28
2023-04-10T08:50:37.357Z,98791.84
2023-04-10T08:53:12.437Z,98791.66
2023-04-10T08:55:43.228Z,98801.72
2023-04-10T08:58:14.744Z,98801.31
2023-04-10T09:00:44.283Z,98792.00
2023-04-10T09:03:15.350Z,98781.22
2023-04-10T09:05:45.234Z,98788.28
2023-04-10T09:08:17.186Z,98775.75
2023-04-10T09:10:47.141Z,98771.09
2023-04-10T09:13:16.503Z,98775.56
2023-04-10T09:16:00.252Z,98763.38
2023-04-10T09:18:56.848Z,98759.03
2023-04-10T09:21:28.446Z,98762.41
2023-04-10T09:24:04.067Z,98753.91
2023-04-10T09:26:34.771Z,98757.72
2023-04-10T09:29:08.476Z,98755.13
2023-04-10T09:31:41.758Z,98756.09
2023-04-10T09:34:17.201Z,98740.16
2023-04-10T09:36:57.289Z,98739.53
2023-04-10T09:39:37.517Z,98736.47
2023-04-10T09:42:07.918Z,98737.91
2023-04-10T09:44:39.241Z,98730.84
2023-04-10T09:47:24.481Z,98725.38
2023-04-10T09:49:58.608Z,98729.56
2023-04-10T09:52:30.852Z,98718.50
2023-04-10T09:55:09.658Z,98726.19
2023-04-10T09:57:39.828Z,98732.44
2023-04-10T10:00:10.635Z,98720.06
2023-04-10T10:02:41.747Z,98719.53
2023-04-10T10:05:12.669Z,98712.81
2023-04-10T10:07:42.632Z,98708.44
2023-04-10T10:10:13.873Z,98698.34
2023-04-10T10:12:51.734Z,98693.19
2023-04-10T10:15:33.260Z,98692.56
2023-04-10T10:18:37.667Z,98694.31
2023-04-10T10:21:07.526Z,98680.78
2023-04-10T10:23:39.144Z,98693.47
2023-04-10T10:26:09.217Z,98684.09
2023-04-10T10:28:42.291Z,98688.31
2023-04-10T10:31:12.774Z,98685.75
2023-04-10T10:33:43.153Z,98688.19
2023-04-10T10:36:14.950Z,98686.59
2023-04-10T10:38:55.768Z,98681.69
2023-04-10T10:41:38.598Z,98678.06
2023-04-10T10:44:33.166Z,98675.81
2023-04-10T10:47:22.677Z,98667.47
2023-04-10T10:50:01.487Z,98673.00
2023-04-10T10:52:43.869Z,98675.34
2023-04-10T10:55:36.519Z,98670.66
2023-04-10T10:58:08.468Z,98669.69
2023-04-10T11:00:53.316Z,98670.84
2023-04-10T11:03:23.815Z,98667.59
2023-04-10T11:05:55.654Z,98665.09
2023-04-10T11:08:34.928Z,98666.69
2023-04-10T11:11:08.981Z,98666.22
2023-04-10T11:13:42.999Z,98654.75
2023-04-10T11:16:13.211Z,98656.78
2023-04-10T11:18:55.885Z,98657.00
2023-04-10T11:21:33.011Z,98651.06
2023-04-10T11:24:05.062Z,98659.13
2023-04-10T11:26:38.727Z,98657.22
2023-04-10T11:29:20.996Z,98655.09
2023-04-10T11:32:11.551Z,98655.59
2023-04-10T11:34:46.912Z,98656.22
2023-04-10T11:37:25.636Z,98656.97
2023-04-10T11:40:06.484Z,98653.47
2023-04-10T11:42:36.612Z,98653.59
2023-04-10T11:45:29.092Z,98648.28
2023-04-10T11:47:59.057Z,98641.97
2023-04-10T11:50:33.283Z,98644.56
2023-04-10T11:53:03.062Z,98641.84
2023-04-10T11:55:41.693Z,98640.56
2023-04-10T11:58:43.342Z,98651.16
2023-04-10T12:01:15.640Z,98641.88
2023-04-10T12:03:46.200Z,98642.53
2023-04-10T12:06:16.809Z,98638.25
2023-04-10T12:08:50.741Z,98642.59
2023-04-10T12:11:25.971Z,98643.53
2023-04-10T12:14:00.320Z,98641.78
2023-04-10T12:16:29.917Z,98633.78
2023-04-10T12:18:59.539Z,98638.09
2023-04-10T12:21:29.168Z,98639.06
2023-04-10T12:23:58.679Z,98636.97
2023-04-10T12:26:28.308Z,98634.91
2023-04-10T12:28:58.774Z,98637.63
2023-04-10T12:31:33.907Z,98641.75
2023-04-10T12:34:04.372Z,98640.47
2023-04-10T12:36:36.184Z,98648.66
2023-04-10T12:39:07.142Z,98643.00
2023-04-10T12:41:37.309Z,98645.84
2023-04-10T12:44:12.410Z,98645.66
2023-04-10T12:46:43.660Z,98653.66
2023-04-10T12:49:20.021Z,98650.72
2023-04-10T12:51:54.213Z,98656.78
2023-04-10T12:54:38.036Z,98658.53
2023-04-10T12:57:08.110Z,98664.13
2023-04-10T12:59:38.525Z,98663.75
2023-04-10T13:02:08.851Z,98661.44
2023-04-10T13:04:38.888Z,98661.09
2023-04-10T13:07:09.123Z,98664.50
2023-04-10T13:09:39.637Z,98666.25
2023-04-10T13:12:09.300Z,98673.38
2023-04-10T13:14:38.975Z,98671.81
2023-04-10T13:17:08.457Z,98680.34
2023-04-10T13:19:38.748Z,98682.19
2023-04-10T13:22:08.941Z,98675.56
2023-04-10T13:24:39.366Z,98684.03
2023-04-10T13:27:08.878Z,98678.19
2023-04-10T13:29:40.215Z,98690.09
2023-04-10T13:32:10.778Z,98687.94
2023-04-10T13:34:40.103Z,98689.13
2023-04-10T13:37:14.320Z,98691.59
2023-04-10T13:39:44.575Z,98694.59
2023-04-10T13:42:15.239Z,98692.66
2023-04-10T13:44:44.447Z,98694.47
2023-04-10T13:47:15.865Z,98692.88
2023-04-10T13:49:50.380Z,98699.78
2023-04-10T13:52:19.669Z,98696.47
2023-04-10T13:54:49.055Z,98699.56
2023-04-10T13:57:19.316Z,98698.91
2023-04-10T13:59:48.525Z,98700.38
2023-04-10T14:02:18.485Z,98696.44
2023-04-10T14:04:48.535Z,98691.41
2023-04-10T14:07:19.759Z,98690.41
2023-04-10T14:09:49.946Z,98697.50
2023-04-10T14:12:20.693Z,98701.91
2023-04-10T14:14:50.043Z,98702.00
2023-04-10T14:17:19.793Z,98705.81
2023-04-10T14:19:52.729Z,98703.69
2023-04-10T14:22:22.484Z,98704.00
2023-04-10T14:24:58.920Z,98710.53
2023-04-10T14:27:35.851Z,98705.16
2023-04-10T14:30:05.499Z,98710.88
2023-04-10T14:32:35.198Z,98713.91
2023-04-10T14:35:04.768Z,98716.41
2023-04-10T14:37:34.056Z,98711.03
2023-04-10T14:40:06.134Z,98713.00
2023-04-10T14:42:35.639Z,98719.28
2023-04-10T14:45:06.733Z,98721.28
2023-04-10T14:47:37.404Z,98724.84
2023-04-10T14:50:07.908Z,98722.75
2023-04-10T14:52:37.207Z,98720.31
2023-04-10T14:55:07.034Z,98729.84
2023-04-10T14:57:37.204Z,98733.16
2023-04-10T15:00:08.921Z,98733.72
2023-04-10T15:02:39.926Z,98730.66
2023-04-10T15:05:09.876Z,98731.16
2023-04-10T15:07:39.710Z,98738.22
2023-04-10T15:10:11.875Z,98747.16
2023-04-10T15:12:41.434Z,98740.94
2023-04-10T15:15:11.653Z,98746.06
2023-04-10T15:17:40.991Z,98746.88
2023-04-10T15:20:11.435Z,98744.97
2023-04-10T15:22:43.544Z,98740.66
2023-04-10T15:25:16.126Z,98746.34
2023-04-10T15:27:45.784Z,98743.34
2023-04-10T15:30:15.356Z,98755.84
2023-04-10T15:32:45.339Z,98756.34
2023-04-10T15:35:14.990Z,98758.25
2023-04-10T15:37:44.401Z,98751.28
2023-04-10T15:40:13.935Z,98763.22
2023-04-10T15:42:43.410Z,98760.34
2023-04-10T15:45:12.864Z,98757.59
2023-04-10T15:47:43.152Z,98768.44
2023-04-10T15:50:12.471Z,98763.56
2023-04-10T15:52:42.449Z,98767.41
2023-04-10T15:55:11.863Z,98779.03
2023-04-10T15:57:41.455Z,98769.88
2023-04-10T16:00:11.413Z,98786.47
2023-04-10T16:02:41.741Z,98778.66
2023-04-10T16:05:11.523Z,98777.34
2023-04-10T16:07:43.419Z,98786.34
2023-04-10T16:10:13.121Z,98791.53
2023-04-10T16:12:43.386Z,98787.97
2023-04-10T16:15:12.811Z,98794.25
2023-04-10T16:17:42.504Z,98792.41
2023-04-10T16:20:12.694Z,98787.72
2023-04-10T16:22:42.470Z,98799.47
2023-04-10T16:25:12.555Z,98794.09
2023-04-10T16:27:42.264Z,98796.63
2023-04-10T16:30:12.807Z,98796.84
2023-04-10T16:32:42.326Z,98803.94
2023-04-10T16:35:11.915Z,98803.69
2023-04-10T16:37:41.746Z,98795.31
2023-04-10T16:40:13.541Z,98804.81
2023-04-10T16:42:44.314Z,98802.72
2023-04-10T16:45:14.100Z,98802.75
2023-04-10T16:47:46.434Z,98801.19
2023-04-10T16:50:16.721Z,98800.41
2023-04-10T16:52:47.085Z,98798.28
2023-04-10T16:55:17.583Z,98799.13
2023-04-10T16:57:48.541Z,98797.03
2023-04-10T17:00:19.091Z,98794.34
2023-04-10T17:02:50.459Z,98797.06
2023-04-10T17:05:20.518Z,98794.94
2023-04-10T17:07:49.949Z,98794.69
2023-04-10T17:10:23.760Z,98794.72
2023-04-10T17:12:53.067Z,98797.13
2023-04-10T17:15:22.958Z,98792.53
2023-04-10T17:17:52.281Z,98800.16
2023-04-10T17:20:22.092Z,98792.88
2023-04-10T17:22:51.853Z,98789.84
2023-04-10T17:25:21.843Z,98795.00
2023-04-10T17:27:51.061Z,98793.91
2023-04-10T17:30:20.741Z,98791.47
2023-04-10T17:32:50.544Z,98795.28
2023-04-10T17:35:20.432Z,98790.66
2023-04-10T17:37:49.603Z,98788.53
2023-04-10T17:40:19.274Z,98780.97
2023-04-10T17:42:48.811Z,98786.16
2023-04-10T17:45:18.310Z,98781.28
2023-04-10T17:47:47.666Z,98785.88
2023-04-10T17:50:17.460Z,98788.59
2023-04-10T17:52:47.379Z,98785.13
2023-04-10T17:55:20.859Z,98787.03
2023-04-10T17:57:51.077Z,98781.06
2023-04-10T18:00:21.067Z,98778.34
2023-04-10T18:02:51.026Z,98783.53
2023-04-10T18:05:20.644Z,98777.88
2023-04-10T18:07:50.090Z,98772.75
2023-04-10T18:10:20.151Z,98769.25
2023-04-10T18:12:50.039Z,98770.41
2023-04-10T18:15:19.731Z,98773.13
2023-04-10T18:17:49.495Z,98766.63
2023-04-10T18:20:22.108Z,98758.25
2023-04-10T18:22:51.799Z,98760.72
2023-04-10T18:25:20.997Z,98758.84
2023-04-10T18:28:09.745Z,98759.13
2023-04-10T18:30:39.975Z,98751.28
2023-04-10T18:33:11.277Z,98748.91
2023-04-10T18:35:40.885Z,98746.78
2023-04-10T18:38:10.369Z,98748.13
2023-04-10T18:40:39.570Z,98747.06
2023-04-10T18:43:09.008Z,98749.78
2023-04-10T18:45:38.166Z,98741.41
2023-04-10T18:48:07.492Z,98741.44
2023-04-10T18:50:41.621Z,98735.25
2023-04-10T18:53:11.596Z,98730.63
2023-04-10T18:55:41.267Z,98730.38
2023-04-10T18:58:10.260Z,98725.53
2023-04-10T19:00:39.702Z,98737.97
2023-04-10T19:03:09.194Z,98734.44
2023-04-10T19:05:39.275Z,98727.16
2023-04-10T19:08:08.655Z,98724.97
2023-04-10T19:10:39.393Z,98725.25
2023-04-10T19:13:10.132Z,98733.38
2023-04-10T19:15:43.534Z,98737.16
2023-04-10T19:18:14.906Z,98732.56
2023-04-10T19:20:52.717Z,98731.75
2023-04-10T19:23:23.214Z,98722.00
2023-04-10T19:25:55.855Z,98722.00
2023-04-10T19:28:25.273Z,98720.41
2023-04-10T19:30:54.635Z,98714.19
2023-04-10T19:33:24.906Z,98715.53
2023-04-10T19:35:54.884Z,98714.72
2023-04-10T19:38:24.167Z,98715.00
2023-04-10T19:40:53.581Z,98723.66
2023-04-10T19:43:23.008Z,98727.47
2023-04-10T19:45:54.106Z,98718.53
2023-04-10T19:48:24.173Z,98727.19
2023-04-10T19:50:53.272Z,98720.16
2023-04-10T19:53:22.655Z,98720.44
2023-04-10T19:55:52.108Z,98716.94
2023-04-10T19:58:38.850Z,98712.63
2023-04-10T20:01:10.367Z,98713.16
2023-04-10T20:03:40.137Z,98698.59
2023-04-10T20:06:09.936Z,98702.09
2023-04-10T20:08:39.222Z,98696.44
2023-04-10T20:11:08.574Z,98694.53
2023-04-10T20:13:37.844Z,98690.22
2023-04-10T20:16:08.793Z,98678.09
2023-04-10T20:18:38.491Z,98681.31
2023-04-10T20:21:09.118Z,98679.16
2023-04-10T20:23:39.288Z,98672.38
2023-04-10T20:26:09.830Z,98671.31
2023-04-10T20:28:40.563Z,98667.56
2023-04-10T20:31:12.059Z,98669.72
2023-04-10T20:33:41.956Z,98664.59
2023-04-10T20:36:11.621Z,98663.25
2023-04-10T20:38:41.147Z,98656.22
2023-04-10T20:41:10.388Z,98661.63
2023-04-10T20:43:39.717Z,98665.16
2023-04-10T20:46:10.194Z,98668.66
2023-04-10T20:48:39.726Z,98661.63
2023-04-10T20:51:10.649Z,98662.16
2023-04-10T20:53:40.441Z,98660.81
2023-04-10T20:56:10.120Z,98658.94
2023-04-10T20:58:40.056Z,98645.41
2023-04-10T21:01:12.740Z,98652.16
2023-04-10T21:03:42.220Z,98649.19
2023-04-10T21:06:12.227Z,98653.25
2023-04-10T21:08:41.522Z,98646.78
2023-04-10T21:11:10.905Z,98648.66
2023-04-10T21:13:40.267Z,98649.47
2023-04-10T21:16:09.653Z,98651.63
2023-04-10T21:18:39.253Z,98650.03
2023-04-10T21:21:09.486Z,98650.84
2023-04-10T21:23:38.716Z,98650.03
2023-04-10T21:26:08.350Z,98650.84
2023-04-10T21:28:37.712Z,98652.97
2023-04-10T21:31:07.157Z,98651.09
2023-04-10T21:33:36.933Z,98648.38
2023-04-10T21:36:07.565Z,98649.19
2023-04-10T21:38:37.702Z,98654.06
2023-04-10T21:41:07.243Z,98641.09
2023-04-10T21:43:36.563Z,98644.91
2023-04-10T21:46:06.137Z,98639.75
2023-04-10T21:48:35.728Z,98650.81
2023-04-10T21:51:05.033Z,98645.16
2023-04-10T21:53:34.327Z,98652.44
2023-04-10T21:56:03.735Z,98647.03
2023-04-10T21:58:33.409Z,98647.84
2023-04-10T22:01:02.886Z,98653.50
2023-04-10T22:03:32.825Z,98647.03
2023-04-10T22:06:02.625Z,98647.31
2023-04-10T22:08:32.194Z,98645.69
2023-04-10T22:11:01.225Z,98641.91
2023-04-10T22:13:31.329Z,98645.69
2023-04-10T22:16:03.132Z,98644.34
2023-04-10T22:18:32.503Z,98639.22
2023-04-10T22:21:02.440Z,98642.97
2023-04-10T22:23:31.615Z,98640.28
2023-04-10T22:26:02.364Z,98644.88
2023-04-10T22:28:31.896Z,98641.63
2023-04-10T22:31:02.284Z,98637.31
2023-04-10T22:33:34.528Z,98645.94
2023-04-10T22:36:04.695Z,98644.88
2023-04-10T22:38:33.813Z,98645.69
2023-04-10T22:41:03.049Z,98654.03
2023-04-10T22:43:32.233Z,98652.69
2023-04-10T22:46:01.649Z,98659.44
2023-04-10T22:48:31.092Z,98666.72
2023-04-10T22:51:00.353Z,98664.03
2023-04-10T22:53:29.901Z,98659.97
2023-04-10T22:55:59.247Z,98667.78
2023-04-10T22:58:28.381Z,98668.31
2023-04-10T23:00:57.929Z,98679.38
2023-04-10T23:03:27.044Z,98684.72
2023-04-10T23:05:56.817Z,98689.59
2023-04-10T23:08:26.295Z,98688.22
2023-04-10T23:10:56.920Z,98689.03
2023-04-10T23:13:26.837Z,98687.41
2023-04-10T23:15:57.866Z,98688.47
2023-04-10T23:18:27.292Z,98686.06
2023-04-10T23:20:57.140Z,98688.19
2023-04-10T23:23:27.195Z,98690.63
2023-04-10T23:26:00.161Z,98686.06
2023-04-10T23:28:30.250Z,98691.16
2023-04-10T23:30:59.715Z,98687.94
2023-04-10T23:33:28.837Z,98694.75
2023-04-10T23:35:58.370Z,98693.63
2023-04-10T23:38:27.960Z,98699.56
2023-04-10T23:40:57.742Z,98696.03
2023-04-10T23:43:26.991Z,98694.13
2023-04-10T23:45:57.061Z,98705.47
2023-04-10T23:48:26.879Z,98697.06
2023-04-10T23:51:05.377Z,98698.44
2023-04-10T23:53:35.649Z,98704.38
2023-04-10T23:56:04.946Z,98697.38
2023-04-10T23:58:34.465Z,98708.94
